.
WxDataArchive / Data Records for 2010-10-25
2010-10-24 October 2010 2010-10-26

Data Records for Monday, 25 October 2010

Time	Temp	Chill	HIndex	Humid	Dewpt	 Wind 	HiWind	WindDir	Rain 	Barom 
-----	----	-----	------	-----	-----	------	------	-------	-----	----- 
00:00	64.2	64.2	64.2	74	55.7	1	5	248	0.00	29.710 
00:05	64.3	64.3	64.3	74	55.8	1	5	225	0.00	29.710 
00:10	64.5	64.5	64.5	73	55.6	2	5	248	0.00	29.710 
00:15	64.7	64.7	64.7	73	55.8	1	5	248	0.00	29.706 
00:20	64.7	64.7	64.7	73	55.8	1	4	248	0.00	29.706 
00:25	64.7	64.7	64.7	74	56.2	2	4	248	0.00	29.706 
00:30	64.7	64.7	64.7	74	56.2	1	6	248	0.00	29.694 
00:35	64.7	64.7	64.7	74	56.2	1	6	270	0.00	29.694 
00:40	64.7	64.7	64.7	74	56.2	2	5	248	0.00	29.694 
00:45	64.7	64.7	64.7	75	56.6	2	5	248	0.00	29.685 
00:50	64.5	64.5	64.5	75	56.4	1	6	248	0.00	29.685 
00:55	64.5	64.5	64.5	75	56.4	1	5	225	0.00	29.685 
01:00	64.3	64.3	64.3	76	56.6	2	9	248	0.00	29.687 
01:05	64.2	64.2	64.2	77	56.8	1	5	248	0.00	29.687 
01:10	64.0	64.0	64.0	77	56.6	1	4	248	0.00	29.687 
01:15	64.0	64.0	64.0	77	56.6	2	6	248	0.00	29.683 
01:20	63.9	63.9	63.9	78	56.9	1	6	248	0.00	29.683 
01:25	63.7	63.7	63.7	78	56.7	1	5	225	0.00	29.683 
01:30	63.5	63.5	63.5	79	56.9	1	4	248	0.00	29.687 
01:35	63.5	63.5	63.5	79	56.9	1	5	248	0.00	29.687 
01:40	63.5	63.5	63.5	79	56.9	0	4	248	0.00	29.687 
01:45	63.7	63.7	63.7	80	57.4	1	5	225	0.00	29.687 
01:50	63.7	63.7	63.7	79	57.1	1	5	248	0.00	29.687 
01:55	63.7	63.7	63.7	80	57.4	1	8	270	0.00	29.687 
02:00	63.9	63.9	63.9	79	57.3	1	5	225	0.00	29.689 
02:05	63.9	63.9	63.9	80	57.6	2	5	248	0.00	29.689 
02:10	63.9	63.9	63.9	80	57.6	2	6	248	0.00	29.689 
02:15	63.9	63.9	63.9	80	57.6	2	8	248	0.00	29.689 
02:20	64.0	64.0	64.0	80	57.7	2	6	248	0.00	29.689 
02:25	64.0	64.0	64.0	80	57.7	2	10	248	0.00	29.689 
02:30	64.0	64.0	64.0	80	57.7	2	6	248	0.00	29.681 
02:35	64.0	64.0	64.0	80	57.7	1	5	248	0.00	29.681 
02:40	63.9	63.9	63.9	80	57.6	1	3	270	0.00	29.681 
02:45	63.9	63.9	63.9	80	57.6	1	6	180	0.00	29.678 
02:50	63.9	63.9	63.9	80	57.6	1	5	248	0.00	29.678 
02:55	63.9	63.9	63.9	80	57.6	0	5	248	0.00	29.678 
03:00	63.7	63.7	63.7	80	57.4	1	5	248	0.00	29.675 
03:05	63.7	63.7	63.7	80	57.4	2	5	248	0.00	29.675 
03:10	63.7	63.7	63.7	81	57.8	0	3	225	0.00	29.675 
03:15	63.5	63.5	63.5	81	57.6	1	7	248	0.00	29.674 
03:20	63.5	63.5	63.5	81	57.6	1	5	248	0.00	29.674 
03:25	63.5	63.5	63.5	81	57.6	1	4	248	0.00	29.674 
03:30	63.4	63.4	63.4	81	57.5	1	7	248	0.00	29.672 
03:35	63.4	63.4	63.4	81	57.5	1	4	248	0.00	29.672 
03:40	63.4	63.4	63.4	81	57.5	1	6	248	0.00	29.672 
03:45	63.2	63.2	63.2	81	57.3	0	3	248	0.00	29.665 
03:50	63.2	63.2	63.2	81	57.3	1	5	292	0.00	29.665 
03:55	63.1	63.1	63.1	81	57.2	1	3	315	0.00	29.665 
04:00	63.1	63.1	63.1	81	57.2	1	4	270	0.00	29.653 
04:05	62.9	62.9	62.9	82	57.3	1	6	248	0.00	29.653 
04:10	62.9	62.9	62.9	82	57.3	1	5	248	0.00	29.653 
04:15	62.9	62.9	62.9	82	57.3	1	4	248	0.00	29.652 
04:20	62.7	62.7	62.7	82	57.1	1	3	248	0.00	29.652 
04:25	62.7	62.7	62.7	82	57.1	1	5	248	0.00	29.652 
04:30	62.7	62.7	62.7	82	57.1	1	6	248	0.00	29.644 
04:35	62.7	62.7	62.7	82	57.1	1	5	248	0.00	29.644 
04:40	62.7	62.7	62.7	82	57.1	1	4	248	0.00	29.644 
04:45	62.7	62.7	62.7	82	57.1	1	4	248	0.00	29.640 
04:50	62.7	62.7	62.7	82	57.1	1	5	248	0.00	29.640 
04:55	62.7	62.7	62.7	82	57.1	1	5	292	0.00	29.640 
05:00	62.6	62.6	62.6	82	57.0	1	3	248	0.00	29.643 
05:05	62.6	62.6	62.6	82	57.0	1	2	248	0.00	29.643 
05:10	62.6	62.6	62.6	82	57.0	1	3	248	0.00	29.643 
05:15	62.6	62.6	62.6	82	57.0	1	4	248	0.00	29.645 
05:20	62.6	62.6	62.6	82	57.0	0	2	248	0.00	29.645 
05:25	62.6	62.6	62.6	82	57.0	0	3	248	0.00	29.645 
05:30	62.6	62.6	62.6	82	57.0	1	4	225	0.00	29.635 
05:35	62.6	62.6	62.6	83	57.4	1	4	248	0.00	29.635 
05:40	62.4	62.4	62.4	83	57.2	1	4	248	0.00	29.635 
05:45	62.4	62.4	62.4	83	57.2	1	3	248	0.00	29.639 
05:50	62.6	62.6	62.6	84	57.7	1	4	248	0.00	29.639 
05:55	62.6	62.6	62.6	83	57.4	0	3	315	0.00	29.639 
06:00	62.7	62.7	62.7	84	57.8	1	5	225	0.00	29.631 
06:05	62.7	62.7	62.7	84	57.8	0	3	225	0.00	29.631 
06:10	62.9	62.9	62.9	84	58.0	1	3	270	0.00	29.631 
06:15	62.9	62.9	62.9	84	58.0	0	2	270	0.00	29.640 
06:20	62.9	62.9	62.9	84	58.0	1	4	270	0.00	29.640 
06:25	62.9	62.9	62.9	83	57.7	1	5	248	0.00	29.640 
06:30	62.9	62.9	62.9	83	57.7	1	6	248	0.00	29.644 
06:35	62.9	62.9	62.9	83	57.7	1	5	248	0.00	29.644 
06:40	63.1	63.1	63.1	83	57.8	1	5	248	0.00	29.644 
06:45	63.1	63.1	63.1	83	57.8	2	6	225	0.00	29.643 
06:50	63.2	63.2	63.2	83	57.9	2	6	248	0.00	29.643 
06:55	63.2	63.2	63.2	83	57.9	1	3	270	0.00	29.643 
07:00	63.2	63.2	63.2	83	57.9	1	4	248	0.00	29.637 
07:05	63.1	63.1	63.1	83	57.8	1	5	248	0.00	29.637 
07:10	62.9	62.9	62.9	83	57.7	1	4	248	0.00	29.637 
07:15	62.9	62.9	62.9	83	57.7	1	4	248	0.00	29.637 
07:20	62.9	62.9	62.9	83	57.7	1	5	248	0.00	29.637 
07:25	62.9	62.9	62.9	83	57.7	0	2	270	0.00	29.637 
07:30	62.7	62.7	62.7	83	57.5	1	4	270	0.00	29.637 
07:35	62.7	62.7	62.7	83	57.5	1	4	225	0.00	29.637 
07:40	62.7	62.7	62.7	83	57.5	0	2	225	0.00	29.637 
07:45	62.7	62.7	62.7	83	57.5	0	3	225	0.00	29.634 
07:50	62.6	62.6	62.6	84	57.7	0	4	68	0.00	29.634 
07:55	62.4	62.4	62.4	84	57.5	1	3	248	0.00	29.634 
08:00	62.3	62.3	62.3	84	57.4	0	3	248	0.00	29.634 
08:05	62.0	62.0	62.0	84	57.1	1	5	248	0.00	29.634 
08:10	61.8	61.8	61.8	85	57.2	0	3	225	0.00	29.634 
08:15	61.6	61.6	61.6	85	57.0	0	1	225	0.00	29.635 
08:20	61.6	61.6	61.6	85	57.0	0	1	225	0.00	29.635 
08:25	61.6	61.6	61.6	86	57.4	0	1	225	0.00	29.635 
08:30	61.8	61.8	61.8	86	57.6	0	4	270	0.00	29.638 
08:35	61.8	61.8	61.8	86	57.6	0	2	270	0.00	29.638 
08:40	61.8	61.8	61.8	86	57.6	1	3	270	0.00	29.638 
08:45	61.8	61.8	61.8	86	57.6	1	3	248	0.00	29.639 
08:50	61.8	61.8	61.8	86	57.6	0	2	248	0.00	29.639 
08:55	61.8	61.8	61.8	86	57.6	1	6	248	0.00	29.639 
09:00	61.8	61.8	61.8	86	57.6	0	3	248	0.00	29.641 
09:05	62.0	62.0	62.0	86	57.8	1	5	248	0.00	29.641 
09:10	62.1	62.1	62.1	86	57.9	1	6	292	0.00	29.641 
09:15	62.1	62.1	62.1	85	57.5	1	4	248	0.00	29.651 
09:20	62.3	62.3	62.3	85	57.7	1	6	225	0.00	29.651 
09:25	62.4	62.4	62.4	85	57.8	1	4	248	0.00	29.651 
09:30	62.4	62.4	62.4	85	57.8	1	4	248	0.00	29.655 
09:35	62.6	62.6	62.6	85	58.0	1	4	270	0.00	29.655 
09:40	62.7	62.7	62.7	84	57.8	2	7	90	0.00	29.655 
09:45	62.7	62.7	62.7	84	57.8	1	6	248	0.00	29.657 
09:50	62.9	62.9	62.9	84	58.0	2	6	248	0.00	29.657 
09:55	62.9	62.9	62.9	84	58.0	2	6	248	0.00	29.657 
10:00	63.1	63.1	63.1	84	58.2	1	7	248	0.00	29.660 
10:05	63.2	63.2	63.2	84	58.3	1	5	270	0.00	29.660 
10:10	63.4	63.4	63.4	84	58.5	0	3	248	0.00	29.660 
10:15	63.4	63.4	63.4	84	58.5	2	5	248	0.00	29.657 
10:20	63.5	63.5	63.5	83	58.2	1	5	248	0.00	29.657 
10:25	63.5	63.5	63.5	83	58.2	1	5	248	0.00	29.657 
10:30	63.7	63.7	63.7	83	58.4	1	4	292	0.00	29.654 
10:35	63.9	63.9	63.9	83	58.6	2	7	248	0.00	29.654 
10:40	63.9	63.9	63.9	83	58.6	1	3	270	0.00	29.654 
10:45	64.0	64.0	64.0	82	58.4	1	5	270	0.00	29.652 
10:50	64.2	64.2	64.2	82	58.6	1	4	248	0.00	29.652 
10:55	64.5	64.5	64.5	81	58.5	1	5	270	0.00	29.652 
11:00	64.7	64.7	64.7	81	58.7	2	4	248	0.00	29.641 
11:05	64.8	64.8	64.8	80	58.5	2	6	248	0.00	29.641 
11:10	64.8	64.8	64.8	80	58.5	2	5	248	0.00	29.641 
11:15	65.0	65.0	65.0	80	58.7	1	4	248	0.00	29.637 
11:20	65.0	65.0	65.0	80	58.7	1	5	225	0.00	29.637 
11:25	65.0	65.0	65.0	80	58.7	2	5	270	0.00	29.637 
11:30	65.0	65.0	65.0	80	58.7	2	7	270	0.00	29.633 
11:35	65.0	65.0	65.0	80	58.7	1	4	270	0.00	29.633 
11:40	65.2	65.2	65.2	79	58.5	1	3	270	0.00	29.633 
11:45	65.2	65.2	65.2	79	58.5	2	6	225	0.00	29.626 
11:50	65.3	65.3	65.3	79	58.6	2	5	248	0.00	29.626 
11:55	66.0	66.0	66.0	78	58.9	2	4	248	0.00	29.626 
12:00	66.4	66.4	66.4	77	59.0	3	6	248	0.00	29.624 
12:05	66.9	66.9	66.9	75	58.7	2	7	248	0.00	29.624 
12:10	67.4	67.4	67.4	75	59.2	2	3	225	0.00	29.624 
12:15	67.8	67.8	67.8	74	59.2	2	4	248	0.00	29.628 
12:20	68.3	68.3	68.3	73	59.3	1	3	270	0.00	29.628 
12:25	68.4	68.4	68.4	71	58.6	3	7	248	0.00	29.628 
12:30	68.4	68.4	68.4	72	59.0	2	7	270	0.00	29.630 
12:35	68.6	68.6	68.6	71	58.8	1	5	270	0.00	29.630 
12:40	68.8	68.8	68.8	71	59.0	1	7	248	0.00	29.630 
12:45	69.1	69.1	69.1	70	58.9	2	4	248	0.00	29.622 
12:50	69.1	69.1	69.1	70	58.9	3	7	248	0.00	29.622 
12:55	68.9	68.9	68.9	70	58.7	2	4	248	0.00	29.622 
13:00	68.9	68.9	68.9	70	58.7	3	9	248	0.00	29.623 
13:05	69.3	69.3	69.3	70	59.1	2	5	248	0.00	29.623 
13:10	69.6	69.6	69.6	69	59.0	1	4	248	0.00	29.623 
13:15	69.8	69.8	69.8	69	59.2	1	5	248	0.00	29.616 
13:20	69.6	69.6	69.6	68	58.6	2	7	248	0.00	29.616 
13:25	70.1	70.1	70.1	67	58.6	2	5	248	0.00	29.616 
13:30	70.4	70.4	70.4	66	58.5	2	7	248	0.00	29.612 
13:35	70.6	70.6	70.6	65	58.2	2	6	248	0.00	29.612 
13:40	70.4	70.4	70.4	65	58.1	1	4	225	0.00	29.612 
13:45	70.9	70.9	70.9	65	58.5	2	7	248	0.00	29.612 
13:50	71.5	71.5	71.5	63	58.2	3	9	248	0.00	29.612 
13:55	71.5	71.5	71.5	63	58.2	1	3	248	0.00	29.612 
14:00	71.3	71.3	71.3	64	58.5	1	3	248	0.00	29.611 
14:05	70.9	70.9	70.9	64	58.1	2	5	248	0.00	29.611 
14:10	70.8	70.8	70.8	64	58.0	2	6	248	0.00	29.611 
14:15	70.6	70.6	70.6	65	58.2	1	5	248	0.00	29.600 
14:20	70.9	70.9	70.9	64	58.1	2	7	248	0.00	29.600 
14:25	71.5	71.5	71.5	62	57.8	2	6	248	0.00	29.600 
14:30	71.6	71.6	71.6	62	57.9	2	7	248	0.00	29.595 
14:35	71.8	71.8	71.8	62	58.1	2	8	225	0.00	29.595 
14:40	72.1	72.1	72.1	61	57.9	2	6	248	0.00	29.595 
14:45	72.1	72.1	72.1	61	57.9	2	5	248	0.00	29.587 
14:50	71.8	71.8	71.8	61	57.6	2	7	248	0.00	29.587 
14:55	71.5	71.5	71.5	62	57.8	1	4	248	0.00	29.587 
15:00	71.5	71.5	71.5	62	57.8	1	3	248	0.00	29.585 
15:05	71.8	71.8	71.8	61	57.6	2	7	248	0.00	29.585 
15:10	72.0	72.0	72.0	60	57.3	3	6	270	0.00	29.585 
15:15	72.1	72.1	72.1	60	57.4	2	6	248	0.00	29.580 
15:20	72.3	72.3	72.3	60	57.6	3	7	248	0.00	29.580 
15:25	72.5	72.5	72.5	59	57.3	2	10	248	0.00	29.580 
15:30	72.5	72.5	72.5	59	57.3	2	7	225	0.00	29.568 
15:35	72.5	72.5	72.5	59	57.3	2	6	248	0.00	29.568 
15:40	72.8	72.8	72.8	58	57.1	2	5	248	0.00	29.568 
15:45	73.3	73.3	73.3	57	57.1	2	6	248	0.00	29.569 
15:50	73.0	73.0	73.0	58	57.3	3	9	248	0.00	29.569 
15:55	72.8	72.8	72.8	58	57.1	3	7	248	0.00	29.569 
16:00	72.7	72.7	72.7	58	57.1	4	10	248	0.00	29.565 
16:05	72.5	72.5	72.5	58	56.9	2	9	248	0.00	29.565 
16:10	72.7	72.7	72.7	58	57.1	3	10	248	0.00	29.565 
16:15	72.5	72.5	72.5	58	56.9	2	7	248	0.00	29.564 
16:20	72.5	72.5	72.5	58	56.9	2	5	270	0.00	29.564 
16:25	72.3	72.3	72.3	58	56.7	3	6	248	0.00	29.564 
16:30	72.1	72.1	72.1	59	57.0	2	5	270	0.00	29.568 
16:35	71.8	71.8	71.8	59	56.7	2	5	248	0.00	29.568 
16:40	71.8	71.8	71.8	60	57.2	1	3	248	0.00	29.568 
16:45	71.6	71.6	71.6	60	57.0	1	3	248	0.00	29.574 
16:50	71.6	71.6	71.6	60	57.0	1	3	248	0.00	29.574 
16:55	71.6	71.6	71.6	60	57.0	1	5	248	0.00	29.574 
17:00	71.6	71.6	71.6	59	56.5	2	6	270	0.00	29.575 
17:05	71.6	71.6	71.6	59	56.5	1	6	270	0.00	29.575 
17:10	71.6	71.6	71.6	59	56.5	2	6	225	0.00	29.575 
17:15	71.8	71.8	71.8	59	56.7	2	5	225	0.00	29.568 
17:20	71.3	71.3	71.3	60	56.7	1	4	248	0.00	29.568 
17:25	70.9	70.9	70.9	61	56.8	1	4	90	0.00	29.568 
17:30	70.8	70.8	70.8	61	56.7	1	5	248	0.00	29.569 
17:35	70.4	70.4	70.4	61	56.3	1	3	248	0.00	29.569 
17:40	70.3	70.3	70.3	61	56.2	2	6	248	0.00	29.569 
17:45	70.1	70.1	70.1	61	56.0	2	6	248	0.00	29.583 
17:50	70.1	70.1	70.1	62	56.5	2	7	270	0.00	29.583 
17:55	69.9	69.9	69.9	62	56.3	2	7	248	0.00	29.583 
18:00	69.8	69.8	69.8	62	56.2	1	5	248	0.00	29.584 
18:05	69.6	69.6	69.6	62	56.0	1	6	248	0.00	29.584 
18:10	69.3	69.3	69.3	63	56.2	0	2	248	0.00	29.584 
18:15	68.8	68.8	68.8	64	56.1	1	2	248	0.00	29.585 
18:20	68.4	68.4	68.4	64	55.7	1	6	248	0.00	29.585 
18:25	68.3	68.3	68.3	65	56.1	1	3	270	0.00	29.585 
18:30	68.1	68.1	68.1	65	55.9	1	7	315	0.00	29.586 
18:35	67.9	67.9	67.9	66	56.1	1	5	90	0.00	29.586 
18:40	67.6	67.6	67.6	67	56.2	1	4	112	0.00	29.586 
18:45	67.3	67.3	67.3	69	56.8	0	3	22	0.00	29.587 
18:50	66.9	66.9	66.9	69	56.4	1	3	270	0.00	29.587 
18:55	66.4	66.4	66.4	70	56.3	0	2	270	0.00	29.587 
19:00	66.3	66.3	66.3	71	56.6	2	6	90	0.00	29.593 
19:05	66.0	66.0	66.0	72	56.7	0	2	90	0.00	29.593 
19:10	65.8	65.8	65.8	73	56.9	1	5	112	0.00	29.593 
19:15	65.5	65.5	65.5	73	56.6	1	3	90	0.00	29.590 
19:20	65.3	65.3	65.3	73	56.4	0	3	90	0.00	29.590 
19:25	65.2	65.2	65.2	74	56.7	1	3	90	0.00	29.590 
19:30	65.0	65.0	65.0	74	56.5	1	3	90	0.00	29.590 
19:35	64.8	64.8	64.8	75	56.7	1	4	90	0.00	29.590 
19:40	64.8	64.8	64.8	75	56.7	1	5	90	0.00	29.590 
19:45	64.8	64.8	64.8	75	56.7	1	3	90	0.00	29.590 
19:50	64.8	64.8	64.8	75	56.7	1	4	90	0.00	29.590 
19:55	64.8	64.8	64.8	75	56.7	1	4	90	0.00	29.590 
20:00	64.7	64.7	64.7	75	56.6	0	2	68	0.00	29.588 
20:05	64.7	64.7	64.7	75	56.6	0	3	68	0.00	29.588 
20:10	64.5	64.5	64.5	75	56.4	1	3	112	0.00	29.588 
20:15	64.5	64.5	64.5	75	56.4	0	1	68	0.00	29.589 
20:20	64.3	64.3	64.3	75	56.2	0	1	68	0.00	29.589 
20:25	64.2	64.2	64.2	76	56.5	0	2	45	0.00	29.589 
20:30	64.2	64.2	64.2	76	56.5	1	2	45	0.00	29.590 
20:35	64.0	64.0	64.0	76	56.3	1	2	135	0.00	29.590 
20:40	63.9	63.9	63.9	76	56.2	0	2	158	0.00	29.590 
20:45	63.7	63.7	63.7	77	56.3	0	2	158	0.00	29.591 
20:50	63.5	63.5	63.5	77	56.2	0	1	158	0.00	29.591 
20:55	63.4	63.4	63.4	77	56.1	0	1	158	0.00	29.591 
21:00	63.2	63.2	63.2	77	55.9	0	1	158	0.00	29.594 
21:05	62.9	62.9	62.9	78	55.9	0	2	158	0.00	29.594 
21:10	62.7	62.7	62.7	78	55.7	0	2	68	0.00	29.594 
21:15	62.6	62.6	62.6	79	56.0	1	3	112	0.00	29.586 
21:20	62.4	62.4	62.4	79	55.8	0	2	112	0.00	29.586 
21:25	62.4	62.4	62.4	79	55.8	1	3	112	0.00	29.586 
21:30	62.3	62.3	62.3	80	56.0	0	2	112	0.00	29.587 
21:35	62.1	62.1	62.1	80	55.9	1	3	68	0.00	29.587 
21:40	62.1	62.1	62.1	80	55.9	1	2	68	0.00	29.587 
21:45	62.1	62.1	62.1	80	55.9	1	4	112	0.00	29.575 
21:50	62.1	62.1	62.1	80	55.9	0	3	112	0.00	29.575 
21:55	62.1	62.1	62.1	80	55.9	0	2	112	0.00	29.575 
22:00	62.1	62.1	62.1	80	55.9	1	4	112	0.00	29.572 
22:05	62.1	62.1	62.1	79	55.5	1	3	112	0.00	29.572 
22:10	62.3	62.3	62.3	79	55.7	1	3	112	0.00	29.572 
22:15	62.3	62.3	62.3	79	55.7	1	3	68	0.00	29.573 
22:20	62.4	62.4	62.4	79	55.8	1	5	90	0.00	29.573 
22:25	62.4	62.4	62.4	78	55.4	1	3	90	0.00	29.573 
22:30	62.6	62.6	62.6	78	55.6	1	5	90	0.00	29.576 
22:35	62.6	62.6	62.6	78	55.6	1	3	112	0.00	29.576 
22:40	62.6	62.6	62.6	78	55.6	1	3	90	0.00	29.576 
22:45	62.7	62.7	62.7	78	55.7	0	3	90	0.00	29.573 
22:50	62.7	62.7	62.7	78	55.7	1	9	270	0.00	29.573 
22:55	62.9	62.9	62.9	78	55.9	1	6	90	0.00	29.573 
23:00	63.1	63.1	63.1	77	55.8	1	5	112	0.00	29.576 
23:05	63.2	63.2	63.2	77	55.9	1	4	90	0.00	29.576 
23:10	63.2	63.2	63.2	77	55.9	1	6	135	0.00	29.576 
23:15	63.4	63.4	63.4	77	56.1	1	4	90	0.00	29.571 
23:20	63.4	63.4	63.4	77	56.1	1	5	45	0.00	29.571 
23:25	63.5	63.5	63.5	77	56.2	1	3	68	0.00	29.571 
23:30	63.5	63.5	63.5	77	56.2	2	6	90	0.00	29.566 
23:35	63.5	63.5	63.5	77	56.2	1	3	112	0.00	29.566 
23:40	63.5	63.5	63.5	77	56.2	1	5	90	0.00	29.566 
23:45	63.5	63.5	63.5	77	56.2	1	3	90	0.00	29.557 
23:50	63.7	63.7	63.7	77	56.3	1	3	90	0.00	29.557 
23:55	63.7	63.7	63.7	77	56.3	1	6	90	0.00	29.557 

CoCoRaHS
IN-AL-39
A2 Web Hosting
Creative Commons License
GoDaddy
search engine by freefind advanced

loaded 2018-11-16 10:37:30 • last modified 2010-11-18 10:43:29
Privacy PolicyDisclaimer
• wx.awcolley.com is powered by PmWiki v.2002016 •
• all content (unless otherwise noted) © 2018 A W Colley